Time;durP1;ratioP1;P1;durP2;ratioP2;P2;SDS_P1;SDS_P2;PMS_P1;PMS_P2;Temp;Humidity;BMP_temperature;BMP_pressure;BME280_temperature;BME280_humidity;BME280_pressure;Samples;Min_cycle;Max_cycle;Signal;HPM_P1;HPM_P2
2020/12/27 00:00:55;;;;;;;47.87;20.93;;;;;;;-3.78;84.61;99509.39;4297966;82;21388;-85
2020/12/27 00:07:09;;;;;;;46.33;20.07;;;;;;;-3.87;84.52;99511.01;4293548;82;21205;-87
2020/12/27 00:13:11;;;;;;;44.30;18.77;;;;;;;-3.85;85.28;99500.85;4286992;82;21584;-85
2020/12/27 00:19:12;;;;;;;49.53;19.50;;;;;;;-3.89;84.64;99495.75;4281580;82;21170;-89
2020/12/27 00:25:14;;;;;;;50.70;19.03;;;;;;;-3.97;84.54;99494.43;4290122;82;21573;-87
2020/12/27 00:31:17;;;;;;;43.37;15.37;;;;;;;-4.04;84.72;99482.41;4302041;82;21360;-89
2020/12/27 00:37:19;;;;;;;30.93;14.23;;;;;;;-4.03;84.67;99466.09;4271806;82;21166;-89
2020/12/27 00:43:21;;;;;;;32.43;13.77;;;;;;;-3.94;84.70;99462.32;4330967;82;21198;-88
2020/12/27 00:49:22;;;;;;;35.40;14.50;;;;;;;-3.88;84.81;99474.61;4295269;82;21698;-90
2020/12/27 00:55:24;;;;;;;31.17;13.23;;;;;;;-3.96;84.36;99460.47;4280795;83;21594;-89
2020/12/27 01:01:26;;;;;;;38.30;15.43;;;;;;;-4.02;84.31;99453.50;4271966;83;21523;-89
2020/12/27 01:07:29;;;;;;;48.97;19.40;;;;;;;-4.17;84.68;99460.20;4276236;83;21664;-90
2020/12/27 01:13:33;;;;;;;52.90;21.03;;;;;;;-4.17;84.79;99453.00;4272924;81;21747;-90
2020/12/27 01:19:36;;;;;;;73.60;27.30;;;;;;;-4.23;85.05;99434.02;4271599;83;21153;-89
2020/12/27 01:25:38;;;;;;;59.47;23.50;;;;;;;-4.18;85.40;99421.97;4273580;83;21169;-89
2020/12/27 01:31:40;;;;;;;81.90;31.67;;;;;;;-4.24;84.72;99415.03;4275970;81;21155;-89
2020/12/27 01:37:43;;;;;;;61.07;23.40;;;;;;;-4.52;84.12;99402.21;4247580;83;21627;-90
2020/12/27 01:44:07;;;;;;;74.10;30.73;;;;;;;-4.69;84.51;99395.52;4239941;82;21174;-89
2020/12/27 01:50:09;;;;;;;65.93;28.27;;;;;;;-4.70;85.26;99401.41;4280499;82;21586;-89
2020/12/27 01:56:14;;;;;;;79.47;29.77;;;;;;;-4.58;85.69;99388.59;4266698;81;21769;-90
2020/12/27 02:02:18;;;;;;;70.37;29.55;;;;;;;-4.52;85.36;99368.81;4278604;82;21151;-89
2020/12/27 02:08:30;;;;;;;83.57;34.33;;;;;;;-4.71;84.15;99362.95;4240979;83;21315;-89
2020/12/27 02:14:36;;;;;;;87.30;34.37;;;;;;;-5.09;84.15;99360.25;4239940;82;21160;-90
2020/12/27 02:20:38;;;;;;;78.50;32.87;;;;;;;-5.18;84.61;99352.47;4228463;83;21171;-91
2020/12/27 02:27:05;;;;;;;91.87;37.00;;;;;;;-5.19;85.61;99349.02;4591964;75;23722;-90
2020/12/27 02:33:07;;;;;;;101.90;36.97;;;;;;;-5.26;84.65;99345.00;4491068;79;21140;-90
2020/12/27 02:39:11;;;;;;;85.67;32.73;;;;;;;-5.39;84.66;99348.98;4487651;78;21089;-89
2020/12/27 02:45:12;;;;;;;90.70;33.03;;;;;;;-5.54;84.37;99334.77;4495998;78;21133;-88
2020/12/27 02:51:28;;;;;;;87.67;32.43;;;;;;;-5.49;84.53;99321.45;4597490;75;22912;-88
2020/12/27 02:57:29;;;;;;;84.50;30.10;;;;;;;-5.57;84.32;99307.28;4485738;78;21128;-88
2020/12/27 03:03:38;;;;;;;88.03;33.70;;;;;;;-5.71;84.24;99285.66;4493349;78;21133;-90
2020/12/27 03:09:50;;;;;;;91.93;34.27;;;;;;;-5.72;85.75;99284.59;4522644;77;23334;-89
2020/12/27 03:16:05;;;;;;;78.73;30.63;;;;;;;-5.68;84.81;99286.46;4475499;78;21141;-90
2020/12/27 03:22:20;;;;;;;81.50;30.30;;;;;;;-5.84;84.22;99272.06;4589577;76;23332;-88
2020/12/27 03:28:24;;;;;;;88.93;33.57;;;;;;;-5.98;84.70;99263.73;4488002;78;21140;-88
2020/12/27 03:34:39;;;;;;;108.57;34.73;;;;;;;-5.83;85.00;99258.47;4448245;79;23293;-89
2020/12/27 03:40:41;;;;;;;89.37;34.00;;;;;;;-5.99;84.57;99255.99;4391052;78;21172;-88
2020/12/27 03:46:45;;;;;;;79.23;30.57;;;;;;;-5.96;84.62;99233.63;4380015;78;21137;-89
2020/12/27 03:52:48;;;;;;;87.57;33.53;;;;;;;-6.13;84.53;99233.04;4387826;78;21151;-89
2020/12/27 03:59:10;;;;;;;83.43;31.27;;;;;;;-6.20;84.35;99217.03;4384910;78;21130;-87
2020/12/27 04:05:16;;;;;;;96.60;35.40;;;;;;;-6.23;85.56;99206.89;4375778;80;21141;-88
2020/12/27 04:11:19;;;;;;;100.67;37.83;;;;;;;-6.25;84.79;99200.50;4378720;78;21172;-87
2020/12/27 04:17:22;;;;;;;98.23;39.30;;;;;;;-6.24;84.78;99177.30;4384292;78;21161;-89
2020/12/27 04:23:24;;;;;;;110.83;37.00;;;;;;;-6.27;84.73;99171.97;4385966;78;21583;-87
2020/12/27 04:29:26;;;;;;;136.03;48.10;;;;;;;-6.40;84.33;99154.36;4391279;78;21173;-88
2020/12/27 04:35:29;;;;;;;125.07;43.97;;;;;;;-6.58;84.38;99137.75;4388383;80;21149;-88
2020/12/27 04:41:32;;;;;;;111.13;38.67;;;;;;;-6.53;84.83;99129.02;4389994;78;21147;-89
2020/12/27 04:47:36;;;;;;;110.77;40.43;;;;;;;-6.47;84.68;99130.07;4388872;78;21516;-88
2020/12/27 04:53:56;;;;;;;106.70;37.83;;;;;;;-6.29;85.75;99110.67;4386030;78;21326;-87
2020/12/27 05:00:05;;;;;;;111.83;39.30;;;;;;;-6.41;84.13;99105.60;4374930;80;21153;-89
2020/12/27 05:06:15;;;;;;;104.53;39.57;;;;;;;-6.44;84.50;99104.80;4375654;78;21121;-90
2020/12/27 05:12:18;;;;;;;99.87;35.87;;;;;;;-6.56;85.01;99105.54;4375650;78;21164;-88
2020/12/27 05:18:20;;;;;;;103.53;37.07;;;;;;;-6.72;84.71;99098.58;4382227;78;21168;-88
2020/12/27 05:24:22;;;;;;;101.83;36.57;;;;;;;-6.67;85.41;99103.38;4384312;78;21096;-89
2020/12/27 05:30:27;;;;;;;96.20;35.70;;;;;;;-6.73;84.78;99086.31;4383477;78;21502;-89
2020/12/27 05:36:47;;;;;;;84.30;33.27;;;;;;;-6.81;84.86;99094.27;4384298;78;21602;-88
2020/12/27 05:43:03;;;;;;;93.53;34.30;;;;;;;-6.69;85.24;99097.51;4584137;76;22911;-88
2020/12/27 05:49:06;;;;;;;85.33;33.70;;;;;;;-6.76;85.05;99092.16;4452477;78;21591;-87
2020/12/27 05:55:10;;;;;;;86.20;31.50;;;;;;;-6.90;84.78;99095.03;4437835;78;21148;-88
2020/12/27 06:01:23;;;;;;;86.82;32.13;;;;;;;-6.97;84.98;99084.63;4511593;77;21132;-88
2020/12/27 06:07:39;;;;;;;75.57;29.80;;;;;;;-6.87;85.66;99081.20;4491087;78;21795;-88
2020/12/27 06:13:59;;;;;;;68.57;28.87;;;;;;;-6.83;85.10;99078.31;4485660;78;21570;-87
2020/12/27 06:20:15;;;;;;;89.37;35.53;;;;;;;-6.74;85.21;99092.19;4384867;78;23017;-87
2020/12/27 06:26:30;;;;;;;79.90;31.50;;;;;;;-6.75;85.40;99080.47;4323041;80;21193;-88
2020/12/27 06:32:44;;;;;;;84.33;32.70;;;;;;;-6.81;84.62;99083.62;4333828;80;21155;-87
2020/12/27 06:38:45;;;;;;;85.87;30.70;;;;;;;-7.02;84.52;99087.80;4343293;81;21177;-87
2020/12/27 06:44:50;;;;;;;80.23;29.63;;;;;;;-7.08;84.79;99083.52;4330510;81;21177;-87
2020/12/27 06:51:00;;;;;;;86.37;33.40;;;;;;;-7.01;84.36;99080.08;4332112;80;21210;-87
2020/12/27 06:57:02;;;;;;;85.13;32.67;;;;;;;-7.13;84.76;99085.63;4326339;80;21141;-87
2020/12/27 07:03:13;;;;;;;88.77;33.73;;;;;;;-7.22;84.99;99063.22;4189749;83;21634;-87
2020/12/27 07:09:23;;;;;;;91.83;33.97;;;;;;;-7.21;84.98;99050.20;4208365;83;21164;-88
2020/12/27 07:15:28;;;;;;;94.90;35.33;;;;;;;-7.04;85.32;99049.48;4193059;83;21220;-87
2020/12/27 07:21:30;;;;;;;85.40;31.33;;;;;;;-7.00;84.95;99044.45;4241569;82;21718;-86
2020/12/27 07:27:37;;;;;;;71.50;28.63;;;;;;;-6.95;84.92;99029.80;4246308;82;21133;-86
2020/12/27 07:33:39;;;;;;;80.03;31.57;;;;;;;-6.95;84.78;99022.62;4254809;82;21154;-86
2020/12/27 07:39:53;;;;;;;82.73;31.00;;;;;;;-6.74;85.48;99006.19;4220387;83;21140;-87
2020/12/27 07:45:55;;;;;;;90.00;35.77;;;;;;;-6.50;85.48;99012.09;4256868;82;21280;-87
2020/12/27 07:51:56;;;;;;;100.63;43.67;;;;;;;-6.37;85.46;98999.34;4257143;83;21443;-86
2020/12/27 07:58:05;;;;;;;110.73;40.70;;;;;;;-6.12;85.81;98990.02;4237687;83;21720;-86
2020/12/27 08:04:07;;;;;;;84.73;37.90;;;;;;;-5.78;86.19;98989.69;4246520;83;21220;-86
2020/12/27 08:10:22;;;;;;;79.80;33.97;;;;;;;-5.51;86.39;98967.49;4184802;84;21492;-87
2020/12/27 08:16:42;;;;;;;87.17;30.70;;;;;;;-5.13;86.58;98952.92;4441746;79;22957;-85
2020/12/27 08:22:43;;;;;;;61.27;25.40;;;;;;;-4.92;86.70;98948.28;4386981;80;21159;-86
2020/12/27 08:28:45;;;;;;;51.33;23.30;;;;;;;-4.61;86.73;98959.56;4388844;80;21143;-87
2020/12/27 08:34:46;;;;;;;62.43;28.23;;;;;;;-4.16;87.04;98961.89;4382129;80;21839;-88
2020/12/27 08:41:10;;;;;;;62.07;26.90;;;;;;;-3.56;87.48;98958.65;4389519;80;21154;-86
2020/12/27 08:47:29;;;;;;;53.17;23.93;;;;;;;-2.84;87.75;98962.32;4382009;80;21137;-86
2020/12/27 08:53:42;;;;;;;53.37;26.37;;;;;;;-2.14;87.26;98971.19;4382584;80;21193;-87
2020/12/27 09:00:00;;;;;;;50.87;24.87;;;;;;;-1.70;87.50;98959.44;4384454;80;21305;-87
2020/12/27 09:06:07;;;;;;;54.53;25.07;;;;;;;-0.99;86.71;98946.23;4356884;80;21193;-88
2020/12/27 09:12:09;;;;;;;50.90;21.20;;;;;;;-0.45;86.92;98927.27;4393367;80;21166;-88
2020/12/27 09:18:17;;;;;;;35.47;16.90;;;;;;;0.08;86.61;98934.61;4401496;80;21145;-87
2020/12/27 09:24:29;;;;;;;32.15;16.32;;;;;;;0.48;85.86;98915.48;4395570;80;21632;-89
2020/12/27 09:30:30;;;;;;;34.92;17.27;;;;;;;0.96;85.59;98900.64;4417783;79;21679;-89
2020/12/27 09:36:31;;;;;;;36.55;18.55;;;;;;;1.30;84.61;98885.30;4400530;80;21615;-88
2020/12/27 09:42:33;;;;;;;33.60;17.00;;;;;;;1.74;84.77;98887.44;4410584;80;21131;-90
2020/12/27 09:48:35;;;;;;;33.23;16.75;;;;;;;2.39;83.92;98874.39;4404222;79;21162;-89
2020/12/27 09:54:38;;;;;;;33.95;18.90;;;;;;;2.87;84.00;98868.02;4412157;80;21186;-89
2020/12/27 10:00:40;;;;;;;55.55;28.10;;;;;;;3.07;83.30;98837.50;4412486;80;21190;-90
2020/12/27 10:06:42;;;;;;;47.90;25.90;;;;;;;2.97;83.17;98814.38;4412464;79;21663;-88
2020/12/27 10:12:43;;;;;;;35.95;18.30;;;;;;;3.59;82.53;98802.69;4408685;80;21190;-89
2020/12/27 10:18:45;;;;;;;29.82;16.65;;;;;;;4.35;83.45;98794.26;4395998;80;21133;-90
2020/12/27 10:24:46;;;;;;;33.08;16.15;;;;;;;4.84;82.47;98783.02;4402780;80;21157;-89
2020/12/27 10:30:48;;;;;;;29.80;17.02;;;;;;;4.93;81.02;98769.90;4404879;80;21746;-90
2020/12/27 10:36:52;;;;;;;33.58;17.67;;;;;;;5.36;80.49;98758.55;4403224;80;21186;-91
2020/12/27 10:42:54;;;;;;;35.00;17.65;;;;;;;5.09;77.24;98736.85;4408481;80;21158;-89
2020/12/27 10:48:55;;;;;;;29.07;16.15;;;;;;;5.15;79.98;98701.55;4408335;80;21161;-90
2020/12/27 10:54:57;;;;;;;26.95;14.90;;;;;;;5.42;78.67;98685.81;4405063;80;21591;-90
2020/12/27 11:00:58;;;;;;;22.27;12.90;;;;;;;5.05;78.19;98666.20;4389966;80;21151;-91
2020/12/27 11:07:01;;;;;;;20.90;12.18;;;;;;;4.55;76.48;98663.23;4413098;80;21870;-90
2020/12/27 11:13:02;;;;;;;26.50;12.13;;;;;;;4.37;77.50;98657.86;4405875;80;21205;-90
2020/12/27 11:19:04;;;;;;;19.35;10.75;;;;;;;4.21;76.65;98638.02;4388526;80;21643;-91
2020/12/27 11:25:08;;;;;;;15.10;6.65;;;;;;;3.95;75.74;98614.00;4403185;79;21232;-90
2020/12/27 11:31:09;;;;;;;16.27;7.05;;;;;;;3.92;75.34;98608.47;4393493;80;21174;-88
2020/12/27 11:37:11;;;;;;;13.53;6.80;;;;;;;3.91;74.96;98595.52;4387346;80;21161;-91
2020/12/27 11:43:12;;;;;;;15.15;7.05;;;;;;;3.83;73.48;98567.20;4396800;80;21179;-90
2020/12/27 11:49:14;;;;;;;15.93;5.62;;;;;;;3.64;73.80;98533.15;4419269;80;21421;-90
2020/12/27 11:55:16;;;;;;;13.62;5.85;;;;;;;3.46;72.55;98510.95;4390450;80;21174;-89
2020/12/27 12:01:17;;;;;;;14.00;5.87;;;;;;;3.37;72.48;98515.70;4374510;80;21151;-91
2020/12/27 12:07:19;;;;;;;12.20;5.30;;;;;;;3.29;69.24;98492.84;4391515;80;21596;-91
2020/12/27 12:13:20;;;;;;;13.30;6.15;;;;;;;3.16;71.68;98480.65;4388618;80;21598;-90
2020/12/27 12:19:22;;;;;;;12.23;5.03;;;;;;;3.03;71.60;98460.16;4371099;81;21624;-90
2020/12/27 12:25:23;;;;;;;13.13;5.50;;;;;;;2.91;69.78;98437.16;4374291;80;21134;-91
2020/12/27 12:31:27;;;;;;;13.00;6.30;;;;;;;2.86;68.77;98429.30;4378873;80;21595;-91
2020/12/27 12:37:28;;;;;;;24.85;8.78;;;;;;;2.78;58.98;98418.58;4378068;80;21420;-90
2020/12/27 12:43:31;;;;;;;35.13;15.60;;;;;;;2.71;58.08;98404.86;4380426;80;21677;-91
2020/12/27 12:49:32;;;;;;;19.60;9.08;;;;;;;2.65;61.99;98399.42;4398684;80;21149;-89
2020/12/27 12:55:33;;;;;;;11.95;6.53;;;;;;;2.60;58.74;98389.62;4393776;80;21726;-86
2020/12/27 13:01:35;;;;;;;11.75;4.85;;;;;;;2.56;63.72;98369.83;4378202;80;21169;-90
2020/12/27 13:07:36;;;;;;;11.78;5.37;;;;;;;2.55;60.47;98343.14;4412366;80;21161;-90
2020/12/27 13:13:38;;;;;;;13.55;6.92;;;;;;;2.46;63.59;98333.02;4378765;80;21138;-91
2020/12/27 13:19:39;;;;;;;17.35;7.92;;;;;;;2.30;61.69;98341.55;4435081;80;21177;-91
2020/12/27 13:25:40;;;;;;;13.55;6.60;;;;;;;2.17;61.37;98338.05;4396857;80;21141;-90
2020/12/27 13:31:42;;;;;;;14.78;7.08;;;;;;;2.02;62.90;98333.87;4400088;80;21145;-89
2020/12/27 13:37:44;;;;;;;24.55;10.32;;;;;;;1.91;63.31;98323.27;4394066;80;21150;-91
2020/12/27 13:43:45;;;;;;;19.95;9.78;;;;;;;1.81;63.84;98286.70;4402299;80;21224;-88
2020/12/27 13:49:47;;;;;;;22.85;10.93;;;;;;;1.60;63.80;98253.04;4414180;80;21133;-87
2020/12/27 13:55:48;;;;;;;25.10;11.68;;;;;;;1.45;64.76;98235.36;4395848;80;21186;-86
2020/12/27 14:01:50;;;;;;;25.12;11.78;;;;;;;1.36;64.68;98199.03;4399956;80;21177;-89
2020/12/27 14:07:51;;;;;;;36.58;15.65;;;;;;;1.27;65.03;98182.16;4399892;80;21182;-88
2020/12/27 14:13:53;;;;;;;28.57;13.72;;;;;;;0.98;64.91;98144.59;4398456;80;21221;-89
2020/12/27 14:19:54;;;;;;;30.37;13.50;;;;;;;0.93;65.81;98169.04;4372256;80;21179;-87
2020/12/27 14:25:55;;;;;;;30.12;14.25;;;;;;;0.76;66.32;98180.53;4381490;80;21130;-87
2020/12/27 14:31:57;;;;;;;31.65;14.47;;;;;;;0.66;66.40;98171.52;4402997;80;21193;-88
2020/12/27 14:37:58;;;;;;;35.48;15.55;;;;;;;0.61;66.06;98173.83;4425034;80;21171;-86
2020/12/27 14:44:00;;;;;;;33.55;14.83;;;;;;;0.46;66.35;98135.39;4401436;80;21161;-85
2020/12/27 14:50:01;;;;;;;30.48;14.80;;;;;;;0.25;66.37;98113.06;4379402;80;21463;-86
2020/12/27 14:56:04;;;;;;;35.50;14.87;;;;;;;0.23;66.46;98140.09;4373025;81;21178;-87
2020/12/27 15:02:05;;;;;;;79.33;39.07;;;;;;;0.06;66.58;98122.18;4405500;80;21150;-86
2020/12/27 15:08:07;;;;;;;70.95;31.45;;;;;;;-0.14;66.77;98109.47;4392562;80;21567;-86
2020/12/27 15:14:09;;;;;;;65.27;29.23;;;;;;;-0.38;67.23;98098.02;4393855;80;21170;-86
2020/12/27 15:20:10;;;;;;;61.03;26.63;;;;;;;-0.53;67.58;98068.98;4375325;80;21150;-87
2020/12/27 15:26:12;;;;;;;55.17;27.20;;;;;;;-0.62;67.69;98058.84;4380731;80;21703;-86
2020/12/27 15:32:14;;;;;;;83.30;37.53;;;;;;;-0.69;67.62;98051.05;4373113;80;21452;-86
2020/12/27 15:38:16;;;;;;;68.20;33.00;;;;;;;-0.79;67.99;98035.29;4380968;80;21877;-86
2020/12/27 15:44:17;;;;;;;88.70;34.93;;;;;;;-0.92;68.01;98027.69;4371483;81;21907;-86
2020/12/27 15:50:19;;;;;;;83.10;34.43;;;;;;;-1.03;68.43;98015.72;4390702;80;21157;-85
2020/12/27 15:56:23;;;;;;;67.47;29.70;;;;;;;-1.14;68.09;97986.31;4389237;81;21161;-87
2020/12/27 16:02:25;;;;;;;43.23;19.30;;;;;;;-1.33;68.66;97984.56;4374606;81;21175;-87
2020/12/27 16:08:26;;;;;;;51.63;21.73;;;;;;;-1.35;69.07;97969.36;4367843;81;21163;-85
2020/12/27 16:14:27;;;;;;;57.17;27.07;;;;;;;-1.31;69.24;97960.88;4367498;81;21163;-87
2020/12/27 16:20:29;;;;;;;64.67;25.67;;;;;;;-1.36;69.47;97959.70;4367756;81;21155;-87
2020/12/27 16:26:35;;;;;;;58.43;25.13;;;;;;;-1.41;69.35;97946.48;4367403;81;21139;-86
2020/12/27 16:32:35;;;;;;;81.87;29.73;;;;;;;-1.52;69.66;97936.41;4368514;81;21186;-87
2020/12/27 16:38:39;;;;;;;49.90;19.40;;;;;;;-1.63;70.08;97940.02;4367904;81;21155;-87
2020/12/27 16:44:40;;;;;;;58.10;23.07;;;;;;;-1.79;70.26;97918.83;4368050;81;21179;-86
2020/12/27 16:50:41;;;;;;;54.40;22.97;;;;;;;-1.83;70.80;97906.61;4367871;81;21159;-89
2020/12/27 16:56:43;;;;;;;62.63;25.83;;;;;;;-1.79;71.53;97917.48;4368806;81;21179;-87
2020/12/27 17:02:44;;;;;;;63.53;24.80;;;;;;;-1.79;71.39;97911.58;4368088;81;21624;-88
2020/12/27 17:08:46;;;;;;;112.60;39.87;;;;;;;-1.85;71.14;97897.31;4368299;81;21143;-87
2020/12/27 17:14:48;;;;;;;83.60;31.93;;;;;;;-1.88;71.58;97861.17;4374058;81;21321;-86
2020/12/27 17:20:49;;;;;;;59.53;25.87;;;;;;;-1.79;71.86;97861.16;4389662;81;21479;-86
2020/12/27 17:33:56;;;;;;;52.50;24.63;;;;;;;-1.77;71.93;97844.95;4343807;81;21573;-86
2020/12/27 17:39:58;;;;;;;55.97;23.07;;;;;;;-1.82;71.73;97830.95;4343907;81;21118;-87
2020/12/27 17:45:59;;;;;;;53.80;24.00;;;;;;;-1.85;71.93;97828.34;4330841;82;21163;-88
2020/12/27 17:52:01;;;;;;;103.00;38.40;;;;;;;-1.79;71.83;97823.59;4329317;82;21175;-86
2020/12/27 17:58:03;;;;;;;59.67;24.30;;;;;;;-1.93;72.11;97803.70;4333601;82;21163;-87
2020/12/27 18:04:04;;;;;;;68.90;26.00;;;;;;;-1.99;72.57;97792.14;4358644;81;21134;-88
2020/12/27 18:10:06;;;;;;;60.33;25.47;;;;;;;-1.95;72.52;97790.37;4357454;81;21877;-87
2020/12/27 18:16:09;;;;;;;55.20;22.73;;;;;;;-1.95;72.46;97797.87;4348662;81;21667;-87
2020/12/27 18:22:11;;;;;;;55.87;24.80;;;;;;;-1.94;72.51;97785.23;4327092;82;21158;-88
2020/12/27 18:28:12;;;;;;;54.13;24.57;;;;;;;-2.06;72.82;97771.18;4326750;82;21460;-87
2020/12/27 18:34:14;;;;;;;60.57;25.27;;;;;;;-2.16;72.76;97758.13;4332385;82;21332;-86
2020/12/27 18:40:15;;;;;;;52.20;23.57;;;;;;;-2.17;72.72;97747.17;4333350;81;21157;-86
2020/12/27 18:46:17;;;;;;;70.10;28.40;;;;;;;-2.22;73.46;97743.33;4348495;81;21170;-86
2020/12/27 18:52:18;;;;;;;64.73;26.50;;;;;;;-2.22;73.23;97736.63;4356385;81;21211;-89
2020/12/27 18:58:20;;;;;;;63.60;26.70;;;;;;;-2.25;73.49;97727.09;4319904;81;21445;-86
2020/12/27 19:04:22;;;;;;;60.87;25.50;;;;;;;-2.31;73.43;97703.72;4346438;82;21178;-87
2020/12/27 19:10:23;;;;;;;91.80;35.97;;;;;;;-2.45;73.93;97713.07;4361113;81;21167;-86
2020/12/27 19:16:25;;;;;;;75.50;31.47;;;;;;;-2.43;74.25;97706.84;4330492;81;21147;-87
2020/12/27 19:22:26;;;;;;;81.57;33.80;;;;;;;-2.30;73.94;97691.11;4303887;82;21170;-87
2020/12/27 19:28:28;;;;;;;75.50;32.37;;;;;;;-2.27;74.16;97670.36;4317154;81;21614;-87
2020/12/27 19:34:30;;;;;;;94.00;38.57;;;;;;;-2.20;74.33;97672.75;4303411;82;21202;-88
2020/12/27 19:40:31;;;;;;;98.40;39.10;;;;;;;-2.32;74.38;97664.60;4271987;82;21152;-88
2020/12/27 19:46:35;;;;;;;76.73;31.23;;;;;;;-2.05;74.57;97633.30;4290742;80;21198;-87
2020/12/27 19:52:36;;;;;;;42.20;18.70;;;;;;;-1.69;74.29;97628.69;4296976;81;21186;-89
2020/12/27 19:58:38;;;;;;;44.83;19.43;;;;;;;-1.10;73.15;97588.44;4294671;81;21641;-87
2020/12/27 20:04:39;;;;;;;50.33;22.27;;;;;;;-0.68;72.09;97566.98;4297347;81;21747;-86
2020/12/27 20:10:41;;;;;;;64.40;25.90;;;;;;;-0.36;70.79;97563.36;4292328;81;21230;-87
2020/12/27 20:16:42;;;;;;;50.30;18.73;;;;;;;-0.07;71.16;97568.48;4297652;81;21732;-86
2020/12/27 20:22:44;;;;;;;39.93;15.40;;;;;;;0.29;69.65;97555.47;4307692;81;21165;-87
2020/12/27 20:28:46;;;;;;;55.97;23.03;;;;;;;0.66;70.68;97554.75;4328285;81;21167;-88
2020/12/27 20:34:47;;;;;;;57.80;23.53;;;;;;;0.13;71.05;97557.31;4322564;82;21210;-88
2020/12/27 20:40:49;;;;;;;50.93;21.87;;;;;;;-0.36;71.65;97523.03;4307547;82;21711;-88
2020/12/27 20:46:52;;;;;;;71.03;26.73;;;;;;;-0.73;72.15;97508.63;4293051;82;21656;-86
2020/12/27 20:52:53;;;;;;;57.20;20.63;;;;;;;-0.87;72.59;97497.45;4323567;82;21194;-86
2020/12/27 20:58:55;;;;;;;53.30;21.40;;;;;;;-0.86;72.86;97474.86;4269300;82;21150;-87
2020/12/27 21:04:56;;;;;;;51.03;19.37;;;;;;;-0.83;73.34;97476.86;4300187;82;21179;-88
2020/12/27 21:10:58;;;;;;;50.10;20.23;;;;;;;-0.55;74.37;97455.64;4322877;82;21179;-88
2020/12/27 21:17:01;;;;;;;41.07;16.50;;;;;;;-0.47;73.86;97442.63;4333196;82;21194;-86
2020/12/27 21:23:03;;;;;;;46.10;18.80;;;;;;;-0.42;74.22;97445.08;4343473;81;21134;-86
2020/12/27 21:29:05;;;;;;;47.10;18.73;;;;;;;-0.46;74.33;97441.52;4354340;81;21282;-87
2020/12/27 21:35:06;;;;;;;54.37;23.17;;;;;;;-0.49;74.36;97463.71;4328134;81;21172;-86
2020/12/27 21:41:10;;;;;;;76.50;30.17;;;;;;;-0.55;74.83;97459.67;4333822;81;21157;-86
2020/12/27 21:47:12;;;;;;;40.73;14.60;;;;;;;-0.50;74.97;97441.97;4305197;82;21167;-88
2020/12/27 21:53:13;;;;;;;42.13;15.07;;;;;;;0.39;77.60;97453.25;4350638;82;21170;-87
2020/12/27 21:59:15;;;;;;;39.65;15.83;;;;;;;1.34;75.66;97446.89;4357457;82;21158;-88
2020/12/27 22:05:16;;;;;;;109.75;35.78;;;;;;;1.71;75.45;97448.66;4357294;82;21190;-89
2020/12/27 22:11:18;;;;;;;42.03;16.82;;;;;;;2.13;75.35;97422.51;4356996;82;21175;-88
2020/12/27 22:17:19;;;;;;;37.33;15.32;;;;;;;2.13;75.35;97422.51;4328414;82;21195;-88
2020/12/27 22:23:21;;;;;;;32.42;14.95;;;;;;;2.12;75.34;97402.82;4340137;82;21182;-88
2020/12/27 22:29:23;;;;;;;34.75;13.15;;;;;;;2.23;75.46;97391.65;4348988;82;21917;-88
2020/12/27 22:35:25;;;;;;;32.35;13.90;;;;;;;2.33;75.36;97370.81;4332938;82;21619;-88
2020/12/27 22:41:26;;;;;;;36.03;15.00;;;;;;;2.31;75.32;97359.59;4326502;81;21584;-88
2020/12/27 22:47:28;;;;;;;33.00;13.95;;;;;;;2.25;75.40;97355.63;4331900;81;21128;-89
2020/12/27 22:53:29;;;;;;;37.95;16.32;;;;;;;2.18;75.46;97324.45;4328324;81;21208;-88
2020/12/27 22:59:30;;;;;;;74.60;24.07;;;;;;;2.11;75.49;97327.60;4335945;82;21157;-87
2020/12/27 23:05:32;;;;;;;77.35;24.30;;;;;;;1.91;75.62;97316.65;4364340;81;21151;-88
2020/12/27 23:11:34;;;;;;;49.95;17.15;;;;;;;1.67;75.92;97298.08;4389379;81;21195;-90
2020/12/27 23:17:37;;;;;;;51.05;16.60;;;;;;;1.76;75.97;97319.65;4332126;81;21190;-88
2020/12/27 23:23:38;;;;;;;34.70;14.30;;;;;;;1.51;75.85;97296.83;4354647;82;21170;-88
2020/12/27 23:29:40;;;;;;;61.98;20.10;;;;;;;1.29;76.07;97277.33;4354637;82;21639;-86
2020/12/27 23:35:42;;;;;;;40.95;15.35;;;;;;;1.12;76.65;97264.28;4348922;82;21647;-87
2020/12/27 23:41:45;;;;;;;36.73;15.50;;;;;;;1.13;76.72;97282.00;4331198;82;21612;-89
2020/12/27 23:47:48;;;;;;;39.75;15.13;;;;;;;1.04;76.92;97270.11;4313382;82;21164;-88
2020/12/27 23:53:49;;;;;;;43.08;16.87;;;;;;;0.92;77.00;97232.53;4292688;82;21205;-88
2020/12/27 23:59:51;;;;;;;41.75;17.77;;;;;;;0.94;76.99;97197.91;4317909;82;21176;-87
